sensor_id;sensor_type;location;lat;lon;timestamp;temperature;humidity
21627;DHT22;10975;47.872;12.972;2023-04-28T00:01:37;7.40;99.90
21627;DHT22;10975;47.872;12.972;2023-04-28T00:04:04;7.40;99.90
21627;DHT22;10975;47.872;12.972;2023-04-28T00:06:31;7.40;99.90
21627;DHT22;10975;47.872;12.972;2023-04-28T00:08:58;7.40;99.90
21627;DHT22;10975;47.872;12.972;2023-04-28T00:11:24;7.40;99.90
21627;DHT22;10975;47.872;12.972;2023-04-28T00:13:51;7.40;99.90
21627;DHT22;10975;47.872;12.972;2023-04-28T00:16:18;7.40;99.90
21627;DHT22;10975;47.872;12.972;2023-04-28T00:18:45;7.30;99.90
21627;DHT22;10975;47.872;12.972;2023-04-28T00:21:11;7.40;99.90
21627;DHT22;10975;47.872;12.972;2023-04-28T00:23:38;7.40;99.90
21627;DHT22;10975;47.872;12.972;2023-04-28T00:26:05;7.30;99.90
21627;DHT22;10975;47.872;12.972;2023-04-28T00:28:32;7.20;99.90
21627;DHT22;10975;47.872;12.972;2023-04-28T00:31:00;7.20;99.90
21627;DHT22;10975;47.872;12.972;2023-04-28T00:33:27;7.20;99.90
21627;DHT22;10975;47.872;12.972;2023-04-28T00:35:57;7.20;99.90
21627;DHT22;10975;47.872;12.972;2023-04-28T00:38:24;7.10;99.90
21627;DHT22;10975;47.872;12.972;2023-04-28T00:40:51;7.10;99.90
21627;DHT22;10975;47.872;12.972;2023-04-28T00:43:18;7.10;99.90
21627;DHT22;10975;47.872;12.972;2023-04-28T00:45:44;7.10;99.90
21627;DHT22;10975;47.872;12.972;2023-04-28T00:48:12;7.10;99.90
21627;DHT22;10975;47.872;12.972;2023-04-28T00:50:38;7.10;99.90
21627;DHT22;10975;47.872;12.972;2023-04-28T00:53:05;7.10;99.90
21627;DHT22;10975;47.872;12.972;2023-04-28T00:55:33;7.20;99.90
21627;DHT22;10975;47.872;12.972;2023-04-28T00:58:00;7.10;99.90
21627;DHT22;10975;47.872;12.972;2023-04-28T01:00:27;7.10;99.90
21627;DHT22;10975;47.872;12.972;2023-04-28T01:02:54;7.10;99.90
21627;DHT22;10975;47.872;12.972;2023-04-28T01:05:25;7.10;99.90
21627;DHT22;10975;47.872;12.972;2023-04-28T01:07:52;7.10;99.90
21627;DHT22;10975;47.872;12.972;2023-04-28T01:10:19;7.10;99.90
21627;DHT22;10975;47.872;12.972;2023-04-28T01:12:46;7.10;99.90
21627;DHT22;10975;47.872;12.972;2023-04-28T01:15:16;7.20;99.90
21627;DHT22;10975;47.872;12.972;2023-04-28T01:17:44;7.20;99.90
21627;DHT22;10975;47.872;12.972;2023-04-28T01:20:11;7.20;99.90
21627;DHT22;10975;47.872;12.972;2023-04-28T01:22:37;7.20;99.90
21627;DHT22;10975;47.872;12.972;2023-04-28T01:25:04;7.20;99.90
21627;DHT22;10975;47.872;12.972;2023-04-28T01:27:31;7.20;99.90
21627;DHT22;10975;47.872;12.972;2023-04-28T01:29:57;7.20;99.90
21627;DHT22;10975;47.872;12.972;2023-04-28T01:32:24;7.20;99.90
21627;DHT22;10975;47.872;12.972;2023-04-28T01:34:51;7.20;99.90
21627;DHT22;10975;47.872;12.972;2023-04-28T01:37:18;7.20;99.90
21627;DHT22;10975;47.872;12.972;2023-04-28T01:39:45;7.20;99.90
21627;DHT22;10975;47.872;12.972;2023-04-28T01:42:11;7.10;99.90
21627;DHT22;10975;47.872;12.972;2023-04-28T01:44:38;7.10;99.90
21627;DHT22;10975;47.872;12.972;2023-04-28T01:47:05;7.10;99.90
21627;DHT22;10975;47.872;12.972;2023-04-28T01:49:32;7.10;99.90
21627;DHT22;10975;47.872;12.972;2023-04-28T01:51:59;7.10;99.90
21627;DHT22;10975;47.872;12.972;2023-04-28T01:54:26;7.10;99.90
21627;DHT22;10975;47.872;12.972;2023-04-28T01:56:53;7.10;99.90
21627;DHT22;10975;47.872;12.972;2023-04-28T01:59:20;7.20;99.90
21627;DHT22;10975;47.872;12.972;2023-04-28T02:01:46;7.20;99.90
21627;DHT22;10975;47.872;12.972;2023-04-28T02:04:13;7.30;99.90
21627;DHT22;10975;47.872;12.972;2023-04-28T02:06:40;7.30;99.90
21627;DHT22;10975;47.872;12.972;2023-04-28T02:09:07;7.30;99.90
21627;DHT22;10975;47.872;12.972;2023-04-28T02:11:33;7.20;99.90
21627;DHT22;10975;47.872;12.972;2023-04-28T02:14:00;7.20;99.90
21627;DHT22;10975;47.872;12.972;2023-04-28T02:16:27;7.20;99.90
21627;DHT22;10975;47.872;12.972;2023-04-28T02:18:54;7.20;99.90
21627;DHT22;10975;47.872;12.972;2023-04-28T02:21:20;7.20;99.90
21627;DHT22;10975;47.872;12.972;2023-04-28T02:23:47;7.20;99.90
21627;DHT22;10975;47.872;12.972;2023-04-28T02:26:14;7.10;99.90
21627;DHT22;10975;47.872;12.972;2023-04-28T02:28:41;7.10;99.90
21627;DHT22;10975;47.872;12.972;2023-04-28T02:31:08;7.10;99.90
21627;DHT22;10975;47.872;12.972;2023-04-28T02:33:36;7.10;99.90
21627;DHT22;10975;47.872;12.972;2023-04-28T02:36:03;7.10;99.90
21627;DHT22;10975;47.872;12.972;2023-04-28T02:38:30;7.20;99.90
21627;DHT22;10975;47.872;12.972;2023-04-28T02:41:01;7.20;99.90
21627;DHT22;10975;47.872;12.972;2023-04-28T02:43:28;7.30;99.90
21627;DHT22;10975;47.872;12.972;2023-04-28T02:45:54;7.30;99.90
21627;DHT22;10975;47.872;12.972;2023-04-28T02:48:22;7.30;99.90
21627;DHT22;10975;47.872;12.972;2023-04-28T02:50:49;7.30;99.90
21627;DHT22;10975;47.872;12.972;2023-04-28T02:53:16;7.30;99.90
21627;DHT22;10975;47.872;12.972;2023-04-28T02:55:42;7.30;99.90
21627;DHT22;10975;47.872;12.972;2023-04-28T02:58:09;7.30;99.90
21627;DHT22;10975;47.872;12.972;2023-04-28T03:00:36;7.30;99.90
21627;DHT22;10975;47.872;12.972;2023-04-28T03:03:03;7.30;99.90
21627;DHT22;10975;47.872;12.972;2023-04-28T03:05:29;7.40;99.90
21627;DHT22;10975;47.872;12.972;2023-04-28T03:07:56;7.40;99.90
21627;DHT22;10975;47.872;12.972;2023-04-28T03:10:23;7.40;99.90
21627;DHT22;10975;47.872;12.972;2023-04-28T03:12:50;7.40;99.90
21627;DHT22;10975;47.872;12.972;2023-04-28T03:15:17;7.50;99.90
21627;DHT22;10975;47.872;12.972;2023-04-28T03:17:43;7.50;99.90
21627;DHT22;10975;47.872;12.972;2023-04-28T03:20:10;7.50;99.90
21627;DHT22;10975;47.872;12.972;2023-04-28T03:22:37;7.60;99.90
21627;DHT22;10975;47.872;12.972;2023-04-28T03:25:04;7.60;99.90
21627;DHT22;10975;47.872;12.972;2023-04-28T03:27:31;7.60;99.90
21627;DHT22;10975;47.872;12.972;2023-04-28T03:29:57;7.70;99.90
21627;DHT22;10975;47.872;12.972;2023-04-28T03:32:24;7.70;99.90
21627;DHT22;10975;47.872;12.972;2023-04-28T03:34:51;7.70;99.90
21627;DHT22;10975;47.872;12.972;2023-04-28T03:37:17;7.70;99.90
21627;DHT22;10975;47.872;12.972;2023-04-28T03:39:44;7.70;99.90
21627;DHT22;10975;47.872;12.972;2023-04-28T03:42:11;7.70;99.90
21627;DHT22;10975;47.872;12.972;2023-04-28T03:44:37;7.80;99.90
21627;DHT22;10975;47.872;12.972;2023-04-28T03:47:04;7.80;99.90
21627;DHT22;10975;47.872;12.972;2023-04-28T03:49:31;7.80;99.90
21627;DHT22;10975;47.872;12.972;2023-04-28T03:51:58;7.90;99.90
21627;DHT22;10975;47.872;12.972;2023-04-28T03:54:25;7.90;99.90
21627;DHT22;10975;47.872;12.972;2023-04-28T03:56:51;7.90;99.90
21627;DHT22;10975;47.872;12.972;2023-04-28T03:59:18;7.90;99.90
21627;DHT22;10975;47.872;12.972;2023-04-28T04:01:45;8.00;99.90
21627;DHT22;10975;47.872;12.972;2023-04-28T04:04:11;8.00;99.90
21627;DHT22;10975;47.872;12.972;2023-04-28T04:06:39;8.00;99.90
21627;DHT22;10975;47.872;12.972;2023-04-28T04:09:05;8.10;99.90
21627;DHT22;10975;47.872;12.972;2023-04-28T04:11:32;8.20;99.90
21627;DHT22;10975;47.872;12.972;2023-04-28T04:13:59;8.20;99.90
21627;DHT22;10975;47.872;12.972;2023-04-28T04:16:25;8.30;99.90
21627;DHT22;10975;47.872;12.972;2023-04-28T04:18:52;8.30;99.90
21627;DHT22;10975;47.872;12.972;2023-04-28T04:21:19;8.30;99.90
21627;DHT22;10975;47.872;12.972;2023-04-28T04:23:46;8.40;99.90
21627;DHT22;10975;47.872;12.972;2023-04-28T04:26:13;8.40;99.90
21627;DHT22;10975;47.872;12.972;2023-04-28T04:28:39;8.40;99.90
21627;DHT22;10975;47.872;12.972;2023-04-28T04:31:06;8.40;99.90
21627;DHT22;10975;47.872;12.972;2023-04-28T04:33:34;8.40;99.90
21627;DHT22;10975;47.872;12.972;2023-04-28T04:36:00;8.50;99.90
21627;DHT22;10975;47.872;12.972;2023-04-28T04:38:27;8.60;99.90
21627;DHT22;10975;47.872;12.972;2023-04-28T04:40:54;8.60;99.90
21627;DHT22;10975;47.872;12.972;2023-04-28T04:43:20;8.70;99.90
21627;DHT22;10975;47.872;12.972;2023-04-28T04:45:47;8.70;99.90
21627;DHT22;10975;47.872;12.972;2023-04-28T04:48:14;8.70;99.90
21627;DHT22;10975;47.872;12.972;2023-04-28T04:50:41;8.80;99.90
21627;DHT22;10975;47.872;12.972;2023-04-28T04:53:09;8.90;99.90
21627;DHT22;10975;47.872;12.972;2023-04-28T04:55:40;9.00;99.90
21627;DHT22;10975;47.872;12.972;2023-04-28T04:58:08;9.00;99.90
21627;DHT22;10975;47.872;12.972;2023-04-28T05:00:34;9.10;99.90
21627;DHT22;10975;47.872;12.972;2023-04-28T05:03:03;9.10;99.90
21627;DHT22;10975;47.872;12.972;2023-04-28T05:05:31;9.20;99.90
21627;DHT22;10975;47.872;12.972;2023-04-28T05:07:59;9.20;99.90
21627;DHT22;10975;47.872;12.972;2023-04-28T05:10:26;9.40;99.90
21627;DHT22;10975;47.872;12.972;2023-04-28T05:12:53;9.40;99.90
21627;DHT22;10975;47.872;12.972;2023-04-28T05:15:19;9.40;99.90
21627;DHT22;10975;47.872;12.972;2023-04-28T05:17:46;9.50;99.90
21627;DHT22;10975;47.872;12.972;2023-04-28T05:20:13;9.60;99.90
21627;DHT22;10975;47.872;12.972;2023-04-28T05:22:40;9.70;99.90
21627;DHT22;10975;47.872;12.972;2023-04-28T05:25:07;9.70;99.90
21627;DHT22;10975;47.872;12.972;2023-04-28T05:27:34;9.70;99.90
21627;DHT22;10975;47.872;12.972;2023-04-28T05:30:05;9.80;99.90
21627;DHT22;10975;47.872;12.972;2023-04-28T05:32:33;9.90;99.90
21627;DHT22;10975;47.872;12.972;2023-04-28T05:35:00;10.00;99.90
21627;DHT22;10975;47.872;12.972;2023-04-28T05:37:27;10.10;99.90
21627;DHT22;10975;47.872;12.972;2023-04-28T05:39:54;10.10;99.90
21627;DHT22;10975;47.872;12.972;2023-04-28T05:42:21;10.20;99.90
21627;DHT22;10975;47.872;12.972;2023-04-28T05:44:47;10.30;99.90
21627;DHT22;10975;47.872;12.972;2023-04-28T05:47:14;10.40;99.90
21627;DHT22;10975;47.872;12.972;2023-04-28T05:49:41;10.50;99.90
21627;DHT22;10975;47.872;12.972;2023-04-28T05:52:08;10.50;99.90
21627;DHT22;10975;47.872;12.972;2023-04-28T05:54:34;10.60;99.90
21627;DHT22;10975;47.872;12.972;2023-04-28T05:57:01;10.70;99.90
21627;DHT22;10975;47.872;12.972;2023-04-28T05:59:28;10.80;99.90
21627;DHT22;10975;47.872;12.972;2023-04-28T06:01:56;10.80;99.90
21627;DHT22;10975;47.872;12.972;2023-04-28T06:04:23;10.80;99.90
21627;DHT22;10975;47.872;12.972;2023-04-28T06:06:52;10.80;99.90
21627;DHT22;10975;47.872;12.972;2023-04-28T06:09:18;10.70;99.90
21627;DHT22;10975;47.872;12.972;2023-04-28T06:11:45;10.70;99.90
21627;DHT22;10975;47.872;12.972;2023-04-28T06:14:12;10.70;99.90
21627;DHT22;10975;47.872;12.972;2023-04-28T06:16:39;10.70;99.90
21627;DHT22;10975;47.872;12.972;2023-04-28T06:19:06;10.60;99.90
21627;DHT22;10975;47.872;12.972;2023-04-28T06:21:32;10.50;99.90
21627;DHT22;10975;47.872;12.972;2023-04-28T06:23:59;10.50;99.90
21627;DHT22;10975;47.872;12.972;2023-04-28T06:26:27;10.50;99.90
21627;DHT22;10975;47.872;12.972;2023-04-28T06:28:54;10.50;99.90
21627;DHT22;10975;47.872;12.972;2023-04-28T06:31:21;10.50;99.90
21627;DHT22;10975;47.872;12.972;2023-04-28T06:33:48;10.50;99.90
21627;DHT22;10975;47.872;12.972;2023-04-28T06:36:14;10.50;99.90
21627;DHT22;10975;47.872;12.972;2023-04-28T06:38:43;10.50;99.90
21627;DHT22;10975;47.872;12.972;2023-04-28T06:41:10;10.50;99.90
21627;DHT22;10975;47.872;12.972;2023-04-28T06:43:37;10.50;99.90
21627;DHT22;10975;47.872;12.972;2023-04-28T06:46:04;10.50;99.90
21627;DHT22;10975;47.872;12.972;2023-04-28T06:48:31;10.50;99.90
21627;DHT22;10975;47.872;12.972;2023-04-28T06:50:57;10.60;99.90
21627;DHT22;10975;47.872;12.972;2023-04-28T06:53:24;10.60;99.90
21627;DHT22;10975;47.872;12.972;2023-04-28T06:55:51;10.70;99.90
21627;DHT22;10975;47.872;12.972;2023-04-28T06:58:18;10.70;99.90
21627;DHT22;10975;47.872;12.972;2023-04-28T07:00:46;10.80;99.90
21627;DHT22;10975;47.872;12.972;2023-04-28T07:03:12;10.80;99.90
21627;DHT22;10975;47.872;12.972;2023-04-28T07:05:39;10.90;99.90
21627;DHT22;10975;47.872;12.972;2023-04-28T07:08:06;11.00;99.90
21627;DHT22;10975;47.872;12.972;2023-04-28T07:10:33;11.00;99.90
21627;DHT22;10975;47.872;12.972;2023-04-28T07:13:00;11.20;99.90
21627;DHT22;10975;47.872;12.972;2023-04-28T07:15:26;11.30;99.90
21627;DHT22;10975;47.872;12.972;2023-04-28T07:17:53;11.50;99.90
21627;DHT22;10975;47.872;12.972;2023-04-28T07:20:20;11.60;99.90
21627;DHT22;10975;47.872;12.972;2023-04-28T07:22:46;11.60;99.90
21627;DHT22;10975;47.872;12.972;2023-04-28T07:25:13;11.70;99.90
21627;DHT22;10975;47.872;12.972;2023-04-28T07:27:40;11.70;99.90
21627;DHT22;10975;47.872;12.972;2023-04-28T07:30:07;11.70;99.90
21627;DHT22;10975;47.872;12.972;2023-04-28T07:32:51;11.70;99.90
21627;DHT22;10975;47.872;12.972;2023-04-28T07:35:18;11.80;99.90
21627;DHT22;10975;47.872;12.972;2023-04-28T07:37:45;11.90;99.90
21627;DHT22;10975;47.872;12.972;2023-04-28T07:40:12;12.00;99.90
21627;DHT22;10975;47.872;12.972;2023-04-28T07:42:38;12.20;99.90
21627;DHT22;10975;47.872;12.972;2023-04-28T07:45:05;12.30;99.90
21627;DHT22;10975;47.872;12.972;2023-04-28T07:47:32;12.50;99.90
21627;DHT22;10975;47.872;12.972;2023-04-28T07:49:59;12.70;99.90
21627;DHT22;10975;47.872;12.972;2023-04-28T07:52:30;12.80;99.90
21627;DHT22;10975;47.872;12.972;2023-04-28T07:54:57;12.80;99.90
21627;DHT22;10975;47.872;12.972;2023-04-28T07:57:24;12.80;99.90
21627;DHT22;10975;47.872;12.972;2023-04-28T07:59:51;12.90;99.90
21627;DHT22;10975;47.872;12.972;2023-04-28T08:02:18;12.90;99.90
21627;DHT22;10975;47.872;12.972;2023-04-28T08:04:46;13.00;99.90
21627;DHT22;10975;47.872;12.972;2023-04-28T08:07:13;13.10;99.90
21627;DHT22;10975;47.872;12.972;2023-04-28T08:09:40;13.20;99.90
21627;DHT22;10975;47.872;12.972;2023-04-28T08:12:09;13.20;99.90
21627;DHT22;10975;47.872;12.972;2023-04-28T08:14:36;13.30;99.90
21627;DHT22;10975;47.872;12.972;2023-04-28T08:17:03;13.30;99.90
21627;DHT22;10975;47.872;12.972;2023-04-28T08:19:31;13.20;99.90
21627;DHT22;10975;47.872;12.972;2023-04-28T08:22:06;13.20;99.90
21627;DHT22;10975;47.872;12.972;2023-04-28T08:24:40;13.20;99.90
21627;DHT22;10975;47.872;12.972;2023-04-28T08:27:12;13.20;99.90
21627;DHT22;10975;47.872;12.972;2023-04-28T08:29:39;13.30;99.90
21627;DHT22;10975;47.872;12.972;2023-04-28T08:32:08;13.30;99.90
21627;DHT22;10975;47.872;12.972;2023-04-28T08:34:37;13.30;99.90
21627;DHT22;10975;47.872;12.972;2023-04-28T08:37:05;13.30;99.90
21627;DHT22;10975;47.872;12.972;2023-04-28T08:39:43;13.40;99.90
21627;DHT22;10975;47.872;12.972;2023-04-28T08:42:10;13.50;99.90
21627;DHT22;10975;47.872;12.972;2023-04-28T08:44:38;13.50;99.90
21627;DHT22;10975;47.872;12.972;2023-04-28T08:47:36;13.60;99.90
21627;DHT22;10975;47.872;12.972;2023-04-28T08:50:04;13.60;99.90
21627;DHT22;10975;47.872;12.972;2023-04-28T08:52:32;13.60;99.90
21627;DHT22;10975;47.872;12.972;2023-04-28T08:54:59;13.60;99.90
21627;DHT22;10975;47.872;12.972;2023-04-28T09:00:08;13.50;99.90
21627;DHT22;10975;47.872;12.972;2023-04-28T09:02:35;13.60;99.90
21627;DHT22;10975;47.872;12.972;2023-04-28T09:05:05;13.60;99.90
21627;DHT22;10975;47.872;12.972;2023-04-28T09:07:33;13.60;99.90
21627;DHT22;10975;47.872;12.972;2023-04-28T09:12:46;13.60;99.90
21627;DHT22;10975;47.872;12.972;2023-04-28T09:17:59;13.70;99.90
21627;DHT22;10975;47.872;12.972;2023-04-28T09:20:27;13.80;99.90
21627;DHT22;10975;47.872;12.972;2023-04-28T09:22:55;13.80;99.90
21627;DHT22;10975;47.872;12.972;2023-04-28T09:25:22;13.80;99.90
21627;DHT22;10975;47.872;12.972;2023-04-28T09:27:49;13.80;99.90
21627;DHT22;10975;47.872;12.972;2023-04-28T09:30:15;13.70;99.90
21627;DHT22;10975;47.872;12.972;2023-04-28T09:32:42;13.70;99.90
21627;DHT22;10975;47.872;12.972;2023-04-28T09:35:10;13.50;99.90
21627;DHT22;10975;47.872;12.972;2023-04-28T09:37:37;13.50;99.90
21627;DHT22;10975;47.872;12.972;2023-04-28T09:40:07;13.50;99.90
21627;DHT22;10975;47.872;12.972;2023-04-28T09:42:36;13.40;99.90
21627;DHT22;10975;47.872;12.972;2023-04-28T09:45:03;13.40;99.90
21627;DHT22;10975;47.872;12.972;2023-04-28T09:47:32;13.40;99.90
21627;DHT22;10975;47.872;12.972;2023-04-28T09:50:02;13.40;99.90
21627;DHT22;10975;47.872;12.972;2023-04-28T09:52:29;13.40;99.90
21627;DHT22;10975;47.872;12.972;2023-04-28T09:54:56;13.40;99.90
21627;DHT22;10975;47.872;12.972;2023-04-28T09:57:23;13.40;99.90
21627;DHT22;10975;47.872;12.972;2023-04-28T09:59:53;13.40;99.90
21627;DHT22;10975;47.872;12.972;2023-04-28T10:02:20;13.50;99.90
21627;DHT22;10975;47.872;12.972;2023-04-28T10:05:07;13.50;99.90
21627;DHT22;10975;47.872;12.972;2023-04-28T10:07:35;13.40;99.90
21627;DHT22;10975;47.872;12.972;2023-04-28T10:10:02;13.40;99.90
21627;DHT22;10975;47.872;12.972;2023-04-28T10:12:30;13.40;99.90
21627;DHT22;10975;47.872;12.972;2023-04-28T10:14:57;13.50;99.90
21627;DHT22;10975;47.872;12.972;2023-04-28T10:17:25;13.50;99.90
21627;DHT22;10975;47.872;12.972;2023-04-28T10:19:55;13.50;99.90
21627;DHT22;10975;47.872;12.972;2023-04-28T10:27:30;13.50;99.90
21627;DHT22;10975;47.872;12.972;2023-04-28T10:30:13;13.50;99.90
21627;DHT22;10975;47.872;12.972;2023-04-28T10:35:42;13.60;99.90
21627;DHT22;10975;47.872;12.972;2023-04-28T10:38:14;13.70;99.90
21627;DHT22;10975;47.872;12.972;2023-04-28T10:40:41;13.70;99.90
21627;DHT22;10975;47.872;12.972;2023-04-28T10:43:10;13.70;99.90
21627;DHT22;10975;47.872;12.972;2023-04-28T10:56:08;13.60;99.90
21627;DHT22;10975;47.872;12.972;2023-04-28T10:58:36;13.60;99.90
21627;DHT22;10975;47.872;12.972;2023-04-28T11:04:01;13.50;99.90
21627;DHT22;10975;47.872;12.972;2023-04-28T11:06:40;13.50;99.90
21627;DHT22;10975;47.872;12.972;2023-04-28T11:14:29;13.60;99.90
21627;DHT22;10975;47.872;12.972;2023-04-28T11:16:57;13.70;99.90
21627;DHT22;10975;47.872;12.972;2023-04-28T11:21:52;13.80;99.90
21627;DHT22;10975;47.872;12.972;2023-04-28T11:24:20;13.80;99.90
21627;DHT22;10975;47.872;12.972;2023-04-28T11:26:47;13.80;99.90
21627;DHT22;10975;47.872;12.972;2023-04-28T11:29:14;13.80;99.90
21627;DHT22;10975;47.872;12.972;2023-04-28T11:31:50;13.80;99.90
21627;DHT22;10975;47.872;12.972;2023-04-28T11:34:20;13.80;99.90
21627;DHT22;10975;47.872;12.972;2023-04-28T11:36:48;13.80;99.90
21627;DHT22;10975;47.872;12.972;2023-04-28T11:39:14;13.70;99.90
21627;DHT22;10975;47.872;12.972;2023-04-28T11:41:42;13.60;99.90
21627;DHT22;10975;47.872;12.972;2023-04-28T11:46:48;13.50;99.90
21627;DHT22;10975;47.872;12.972;2023-04-28T11:49:22;13.40;99.90
21627;DHT22;10975;47.872;12.972;2023-04-28T11:51:54;13.40;99.90
21627;DHT22;10975;47.872;12.972;2023-04-28T11:56:47;13.30;99.90
21627;DHT22;10975;47.872;12.972;2023-04-28T11:59:14;13.30;99.90
21627;DHT22;10975;47.872;12.972;2023-04-28T12:01:48;13.30;99.90
21627;DHT22;10975;47.872;12.972;2023-04-28T12:06:57;13.40;99.90
21627;DHT22;10975;47.872;12.972;2023-04-28T12:09:24;13.30;99.90
21627;DHT22;10975;47.872;12.972;2023-04-28T12:11:54;13.30;99.90
21627;DHT22;10975;47.872;12.972;2023-04-28T12:14:22;13.30;99.90
21627;DHT22;10975;47.872;12.972;2023-04-28T12:16:50;13.20;99.90
21627;DHT22;10975;47.872;12.972;2023-04-28T12:19:16;13.20;99.90
21627;DHT22;10975;47.872;12.972;2023-04-28T12:21:58;13.20;99.90
21627;DHT22;10975;47.872;12.972;2023-04-28T12:24:26;13.10;99.90
21627;DHT22;10975;47.872;12.972;2023-04-28T12:26:53;13.10;99.90
21627;DHT22;10975;47.872;12.972;2023-04-28T12:29:38;13.20;99.90
21627;DHT22;10975;47.872;12.972;2023-04-28T12:32:06;13.20;99.90
21627;DHT22;10975;47.872;12.972;2023-04-28T12:34:34;13.20;99.90
21627;DHT22;10975;47.872;12.972;2023-04-28T12:37:02;13.20;99.90
21627;DHT22;10975;47.872;12.972;2023-04-28T12:39:29;13.20;99.90
21627;DHT22;10975;47.872;12.972;2023-04-28T12:41:56;13.20;99.90
21627;DHT22;10975;47.872;12.972;2023-04-28T12:44:24;13.20;99.90
21627;DHT22;10975;47.872;12.972;2023-04-28T12:46:53;13.20;99.90
21627;DHT22;10975;47.872;12.972;2023-04-28T12:49:21;13.10;99.90
21627;DHT22;10975;47.872;12.972;2023-04-28T12:51:48;13.20;99.90
21627;DHT22;10975;47.872;12.972;2023-04-28T12:54:15;13.20;99.90
21627;DHT22;10975;47.872;12.972;2023-04-28T12:59:20;13.40;99.90
21627;DHT22;10975;47.872;12.972;2023-04-28T13:01:48;13.50;99.90
21627;DHT22;10975;47.872;12.972;2023-04-28T13:04:15;13.60;99.90
21627;DHT22;10975;47.872;12.972;2023-04-28T13:06:42;13.60;99.90
21627;DHT22;10975;47.872;12.972;2023-04-28T13:09:10;13.70;99.90
21627;DHT22;10975;47.872;12.972;2023-04-28T13:11:37;13.70;99.90
21627;DHT22;10975;47.872;12.972;2023-04-28T13:14:04;13.70;99.90
21627;DHT22;10975;47.872;12.972;2023-04-28T13:16:31;13.70;99.90
21627;DHT22;10975;47.872;12.972;2023-04-28T13:18:57;13.60;99.90
21627;DHT22;10975;47.872;12.972;2023-04-28T13:21:24;13.60;99.90
21627;DHT22;10975;47.872;12.972;2023-04-28T13:23:52;13.60;99.90
21627;DHT22;10975;47.872;12.972;2023-04-28T13:26:20;13.50;99.90
21627;DHT22;10975;47.872;12.972;2023-04-28T13:28:50;13.50;99.90
21627;DHT22;10975;47.872;12.972;2023-04-28T13:31:22;13.50;99.90
21627;DHT22;10975;47.872;12.972;2023-04-28T13:33:49;13.40;99.90
21627;DHT22;10975;47.872;12.972;2023-04-28T13:36:16;13.40;99.90
21627;DHT22;10975;47.872;12.972;2023-04-28T13:38:43;13.40;99.90
21627;DHT22;10975;47.872;12.972;2023-04-28T13:41:14;13.40;99.90
21627;DHT22;10975;47.872;12.972;2023-04-28T13:43:42;13.40;99.90
21627;DHT22;10975;47.872;12.972;2023-04-28T13:46:09;13.40;99.90
21627;DHT22;10975;47.872;12.972;2023-04-28T13:48:36;13.40;99.90
21627;DHT22;10975;47.872;12.972;2023-04-28T13:51:03;13.40;99.90
21627;DHT22;10975;47.872;12.972;2023-04-28T13:53:30;13.30;99.90
21627;DHT22;10975;47.872;12.972;2023-04-28T13:55:57;13.30;99.90
21627;DHT22;10975;47.872;12.972;2023-04-28T13:58:24;13.20;99.90
21627;DHT22;10975;47.872;12.972;2023-04-28T14:00:51;13.30;99.90
21627;DHT22;10975;47.872;12.972;2023-04-28T14:03:22;13.30;99.90
21627;DHT22;10975;47.872;12.972;2023-04-28T14:05:50;13.30;99.90
21627;DHT22;10975;47.872;12.972;2023-04-28T14:08:17;13.30;99.90
21627;DHT22;10975;47.872;12.972;2023-04-28T14:10:46;13.30;99.90
21627;DHT22;10975;47.872;12.972;2023-04-28T14:13:14;13.30;99.90
21627;DHT22;10975;47.872;12.972;2023-04-28T14:15:41;13.30;99.90
21627;DHT22;10975;47.872;12.972;2023-04-28T14:18:22;13.20;99.90
21627;DHT22;10975;47.872;12.972;2023-04-28T14:20:49;13.20;99.90
21627;DHT22;10975;47.872;12.972;2023-04-28T14:23:16;13.20;99.90
21627;DHT22;10975;47.872;12.972;2023-04-28T14:25:43;13.30;99.90
21627;DHT22;10975;47.872;12.972;2023-04-28T14:28:10;13.30;99.90
21627;DHT22;10975;47.872;12.972;2023-04-28T14:30:37;13.50;99.90
21627;DHT22;10975;47.872;12.972;2023-04-28T14:33:04;13.60;99.90
21627;DHT22;10975;47.872;12.972;2023-04-28T14:35:30;13.60;99.90
21627;DHT22;10975;47.872;12.972;2023-04-28T14:37:57;13.60;99.90
21627;DHT22;10975;47.872;12.972;2023-04-28T14:40:24;13.60;99.90
21627;DHT22;10975;47.872;12.972;2023-04-28T14:42:51;13.60;99.90
21627;DHT22;10975;47.872;12.972;2023-04-28T14:45:18;13.60;99.90
21627;DHT22;10975;47.872;12.972;2023-04-28T14:47:45;13.60;99.90
21627;DHT22;10975;47.872;12.972;2023-04-28T14:50:12;13.60;99.90
21627;DHT22;10975;47.872;12.972;2023-04-28T14:52:40;13.50;99.90
21627;DHT22;10975;47.872;12.972;2023-04-28T14:55:06;13.50;99.90
21627;DHT22;10975;47.872;12.972;2023-04-28T14:57:33;13.50;99.90
21627;DHT22;10975;47.872;12.972;2023-04-28T15:00:01;13.50;99.90
21627;DHT22;10975;47.872;12.972;2023-04-28T15:02:29;13.50;99.90
21627;DHT22;10975;47.872;12.972;2023-04-28T15:04:56;13.60;99.90
21627;DHT22;10975;47.872;12.972;2023-04-28T15:07:23;13.60;99.90
21627;DHT22;10975;47.872;12.972;2023-04-28T15:09:57;13.60;99.90
21627;DHT22;10975;47.872;12.972;2023-04-28T15:12:25;13.50;99.90
21627;DHT22;10975;47.872;12.972;2023-04-28T15:14:52;13.50;99.90
21627;DHT22;10975;47.872;12.972;2023-04-28T15:17:19;13.50;99.90
21627;DHT22;10975;47.872;12.972;2023-04-28T15:19:49;13.40;99.90
21627;DHT22;10975;47.872;12.972;2023-04-28T15:22:16;13.40;99.90
21627;DHT22;10975;47.872;12.972;2023-04-28T15:24:43;13.50;99.90
21627;DHT22;10975;47.872;12.972;2023-04-28T15:27:10;13.50;99.90
21627;DHT22;10975;47.872;12.972;2023-04-28T15:29:37;13.40;99.90
21627;DHT22;10975;47.872;12.972;2023-04-28T15:32:04;13.40;99.90
21627;DHT22;10975;47.872;12.972;2023-04-28T15:34:32;13.30;99.90
21627;DHT22;10975;47.872;12.972;2023-04-28T15:36:59;13.20;99.90
21627;DHT22;10975;47.872;12.972;2023-04-28T15:39:26;13.20;99.90
21627;DHT22;10975;47.872;12.972;2023-04-28T15:41:54;13.10;99.90
21627;DHT22;10975;47.872;12.972;2023-04-28T15:44:21;13.10;99.90
21627;DHT22;10975;47.872;12.972;2023-04-28T15:46:48;13.10;99.90
21627;DHT22;10975;47.872;12.972;2023-04-28T15:49:17;13.10;99.90
21627;DHT22;10975;47.872;12.972;2023-04-28T15:51:44;13.00;99.90
21627;DHT22;10975;47.872;12.972;2023-04-28T15:54:11;13.00;99.90
21627;DHT22;10975;47.872;12.972;2023-04-28T15:56:37;12.90;99.90
21627;DHT22;10975;47.872;12.972;2023-04-28T15:59:04;12.90;99.90
21627;DHT22;10975;47.872;12.972;2023-04-28T16:01:31;12.90;99.90
21627;DHT22;10975;47.872;12.972;2023-04-28T16:03:58;12.90;99.90
21627;DHT22;10975;47.872;12.972;2023-04-28T16:06:25;12.80;99.90
21627;DHT22;10975;47.872;12.972;2023-04-28T16:08:53;12.80;99.90
21627;DHT22;10975;47.872;12.972;2023-04-28T16:11:19;12.80;99.90
21627;DHT22;10975;47.872;12.972;2023-04-28T16:13:46;12.80;99.90